UDYZURMM

Guest
Details From UDYZ - ZVARTNOTS
To URMM - MINERALNYYE VODY
Flight Number -
Tags generated
Created
Modified
Stats Distance 254 nm / 470 km
Max Altitude 26,900 ft / 8,199 m
Waypoints 5
Social Downloads 1
Likes 0
Share VATSIM

Download

Looking for another format? Having issues loading an existing format? Contact us
Advertisement - Login to hide

Notes

Basic altitude profile: - Ascent Rate: 2500ft/min - Ascent Speed: 250kts - Cruise Altitude: 35000ft - Cruise Speed: 420kts - Descent Rate: 1500ft/min - Descent Speed: 250kts

Route

UDYZ TUNIS UR661 BT UR11 ONISA URMM

ID Type Via Altitude Latitude Longitude Leg Dist Tot Dist Heading (true) Name
O UDYZ APT - 0 ft / 0 m 40.14727˚ 44.39588˚ - 0 nm - ZVARTNOTS
TUNIS FIX - 24,000 ft / 7,315 m 41.16667˚ 43.78222˚ 67 nm 67 nm 336° / 335° -
BT NDB UR661 (AWY-HI) 26,900 ft / 8,199 m 42.10000˚ 43.64889˚ 56 nm 123 nm 354° / 354° ALI NDB
ONISA FIX UR11 (AWY-HI) 20,400 ft / 6,218 m 42.58306˚ 43.44861˚ 30 nm 154 nm 343° / 343° -
O URMM APT - 0 ft / 0 m 44.22507˚ 43.08189˚ 99 nm 253 nm 351° / 351° MINERALNYYE VODY

Altitude Profile

Advertisement - Login to hide

Weather


0- 5 10 15 20 25 30 35+ Temperature / ° C

Clouds and Precipitation
Forecast for 2017-12-11 06:00 UTC. Updated an hour ago

Ground ~20,000 ft ~40,000 ft Winds

UDYZ

Details ICAO UDYZ (EVN)
Name ZVARTNOTS
Region Armenia
Timezone Asia/Yerevan (UTC+4.0)
Stats Elevation 2,838 ft / 865 m (AMSL)
Location 40.147271° 44.395880°
Runways 1
Magnetic Variation 6.200° E

METAR

UDYZ 110400Z 30002KT 2000 R09/2000N BR NSC M07/M08 Q1026 R09/000070 NOSIG

Decode

TAF

TAF AMD UDYZ 102345Z 1100/1124 VRB04KT 1000 BR NSC TEMPO 1100/1106 0200 FZFG VV001 BECMG 1109/1110 6000 NSW

Decode

Departure Runways

ID Width Length Bearing (true) Bearing (mag) Surface Threshold Offset Overrun Length
09 184 ft / 56 m 12,601 ft / 3,841 m 89.59° 83.39° Asphalt 0 ft / 0 m 0 ft / 0 m
27 184 ft / 56 m 12,601 ft / 3,841 m 269.62° 263.42° Asphalt 0 ft / 0 m 0 ft / 0 m

URMM

Details ICAO URMM (MRV)
Name MINERALNYYE VODY
Region Russia
Timezone Europe/Moscow (UTC+3.0)
Stats Elevation 1,054 ft / 321 m (AMSL)
Location 44.225073° 43.081891°
Runways 1
Magnetic Variation 7.386° E

METAR

URMM 110400Z 31004MPS 9999 OVC020 01/M00 Q1021 R30/090070 NOSIG RMK MT OBSC QFE738/0984

Decode

TAF

TAF AMD URMM 110352Z 1103/1203 29005G12MPS 9999 BKN015 TX04/1112Z TNM01/1203Z TEMPO 1104/1109 28007G17MPS 3100 -SHRASN BKN011 BKN020CB BECMG 1114/1115 10003G08MPS TEMPO 1115/1203 3100 BR OVC011

Decode

Destination Runways

ID Width Length Bearing (true) Bearing (mag) Surface Threshold Offset Overrun Length
12 197 ft / 60 m 12,766 ft / 3,891 m 122.28° 114.89° Concrete 0 ft / 0 m 240 ft / 73 m
30 197 ft / 60 m 12,766 ft / 3,891 m 302.31° 294.92° Concrete 0 ft / 0 m 250 ft / 76 m

Popular Alternatives